Time,TemperatureF,DewpointF,PressureIn,WindDirection,WindDirectionDegrees,WindSpeedMPH,WindSpeedGustMPH,Humidity,HourlyPrecipIn,Conditions,Clouds,dailyrainin,SoftwareType,DateUTC
2013-04-04 00:02:00,41.2,25.4,30.25,SSW,209,2.0,3.0,53,0.00,,FEW250,0.00,VWS V14.01,2013-04-04 05:02:00,
2013-04-04 00:07:00,41.0,25.2,30.25,SSW,209,1.0,2.0,53,0.00,,FEW250,0.00,VWS V14.01,2013-04-04 05:07:00,
2013-04-04 00:12:00,40.8,25.0,30.25,SSW,209,0.0,2.0,53,0.00,,FEW250,0.00,VWS V14.01,2013-04-04 05:12:00,
2013-04-04 00:17:00,40.7,25.4,30.24,SSW,209,1.0,2.0,54,0.00,,FEW250,0.00,VWS V14.01,2013-04-04 05:17:00,
2013-04-04 00:22:00,40.6,25.3,30.24,SSW,209,1.0,2.0,54,0.00,,FEW250,0.00,VWS V14.01,2013-04-04 05:22:00,
2013-04-04 00:28:00,40.6,25.3,30.24,SW,216,2.0,2.0,54,0.00,,FEW250,0.00,VWS V14.01,2013-04-04 05:28:00,
2013-04-04 00:33:00,40.5,25.2,30.24,SW,216,2.0,3.0,54,0.00,,FEW250,0.00,VWS V14.01,2013-04-04 05:33:00,
2013-04-04 00:38:00,40.4,25.5,30.24,SW,216,3.0,3.0,55,0.00,,FEW250,0.00,VWS V14.01,2013-04-04 05:38:00,
2013-04-04 00:43:00,40.5,25.6,30.24,SW,216,2.0,3.0,55,0.00,,FEW250,0.00,VWS V14.01,2013-04-04 05:43:00,
2013-04-04 00:48:00,40.5,25.6,30.24,SW,216,2.0,3.0,55,0.00,,FEW250,0.00,VWS V14.01,2013-04-04 05:48:00,
2013-04-04 00:53:00,40.5,25.2,30.23,SW,216,2.0,3.0,54,0.00,,FEW250,0.00,VWS V14.01,2013-04-04 05:53:00,
2013-04-04 00:58:00,40.4,25.1,30.24,SW,216,1.0,2.0,54,0.00,,FEW250,0.00,VWS V14.01,2013-04-04 05:58:00,
2013-04-04 01:03:00,40.3,25.0,30.24,SW,216,2.0,3.0,54,0.00,,FEW250,0.00,VWS V14.01,2013-04-04 06:03:00,
2013-04-04 01:08:00,40.2,25.3,30.23,SW,226,3.0,4.0,55,0.00,,FEW250,0.00,VWS V14.01,2013-04-04 06:08:00,
2013-04-04 01:13:00,40.0,25.1,30.24,WSW,239,2.0,4.0,55,0.00,,FEW250,0.00,VWS V14.01,2013-04-04 06:13:00,
2013-04-04 01:18:00,40.1,25.2,30.23,WSW,239,3.0,4.0,55,0.00,,FEW250,0.00,VWS V14.01,2013-04-04 06:18:00,
2013-04-04 01:23:00,40.2,25.3,30.23,WSW,239,2.0,4.0,55,0.00,,FEW250,0.00,VWS V14.01,2013-04-04 06:23:00,
2013-04-04 01:28:00,40.2,25.3,30.23,WSW,239,2.0,3.0,55,0.00,,FEW250,0.00,VWS V14.01,2013-04-04 06:28:00,
2013-04-04 01:33:00,40.1,25.2,30.23,WSW,239,2.0,3.0,55,0.00,,FEW250,0.00,VWS V14.01,2013-04-04 06:33:00,
2013-04-04 01:38:00,39.8,25.0,30.22,SSW,195,1.0,2.0,55,0.00,,FEW250,0.00,VWS V14.01,2013-04-04 06:38:00,
2013-04-04 01:43:00,39.4,25.0,30.22,SSW,201,2.0,3.0,56,0.00,,FEW200,0.00,VWS V14.01,2013-04-04 06:43:00,
2013-04-04 01:48:00,39.1,25.2,30.22,WSW,247,3.0,5.0,57,0.00,,FEW200,0.00,VWS V14.01,2013-04-04 06:48:00,
2013-04-04 01:53:00,38.7,25.2,30.22,WSW,237,5.0,5.0,58,0.00,,FEW200,0.00,VWS V14.01,2013-04-04 06:53:00,
2013-04-04 01:58:00,38.7,25.2,30.22,SW,220,4.0,4.0,58,0.00,,FEW200,0.00,VWS V14.01,2013-04-04 06:58:00,
2013-04-04 02:03:00,38.9,25.4,30.22,SW,235,4.0,5.0,58,0.00,,FEW200,0.00,VWS V14.01,2013-04-04 07:03:00,
2013-04-04 02:08:00,39.0,25.5,30.22,WSW,253,3.0,3.0,58,0.00,,FEW200,0.00,VWS V14.01,2013-04-04 07:08:00,
2013-04-04 02:13:00,38.8,25.3,30.22,WSW,253,4.0,4.0,58,0.00,,FEW200,0.00,VWS V14.01,2013-04-04 07:13:00,
2013-04-04 02:18:00,38.6,25.1,30.22,WSW,253,1.0,2.0,58,0.00,,FEW200,0.00,VWS V14.01,2013-04-04 07:18:00,
2013-04-04 02:23:00,38.6,25.1,30.22,WSW,253,1.0,3.0,58,0.00,,FEW200,0.00,VWS V14.01,2013-04-04 07:23:00,
2013-04-04 02:28:00,38.3,25.2,30.21,WSW,253,3.0,4.0,59,0.00,,FEW200,0.00,VWS V14.01,2013-04-04 07:28:00,
2013-04-04 02:33:00,38.1,25.1,30.21,WSW,253,3.0,3.0,59,0.00,,FEW200,0.00,VWS V14.01,2013-04-04 07:33:00,
2013-04-04 02:38:00,37.9,25.3,30.21,WSW,253,3.0,4.0,60,0.00,,FEW200,0.00,VWS V14.01,2013-04-04 07:38:00,
2013-04-04 02:44:00,37.8,25.2,30.20,WSW,255,3.0,4.0,60,0.00,,CLR,0.00,VWS V14.01,2013-04-04 07:44:00,
2013-04-04 02:49:00,37.8,25.2,30.20,WSW,252,3.0,4.0,60,0.00,,CLR,0.00,VWS V14.01,2013-04-04 07:49:00,
2013-04-04 02:54:00,37.9,25.3,30.20,WSW,256,4.0,4.0,60,0.00,,CLR,0.00,VWS V14.01,2013-04-04 07:54:00,
2013-04-04 02:59:00,38.0,25.4,30.20,WSW,253,2.0,4.0,60,0.00,,CLR,0.00,VWS V14.01,2013-04-04 07:59:00,
2013-04-04 03:04:00,37.9,25.3,30.20,WSW,247,4.0,4.0,60,0.00,,CLR,0.00,VWS V14.01,2013-04-04 08:04:00,
2013-04-04 03:09:00,37.9,25.3,30.20,WSW,256,3.0,4.0,60,0.00,,CLR,0.00,VWS V14.01,2013-04-04 08:09:00,
2013-04-04 03:14:00,37.8,25.6,30.20,WSW,256,2.0,3.0,61,0.00,,CLR,0.00,VWS V14.01,2013-04-04 08:14:00,
2013-04-04 03:19:00,37.7,25.1,30.20,WSW,256,2.0,3.0,60,0.00,,CLR,0.00,VWS V14.01,2013-04-04 08:19:00,
2013-04-04 03:24:00,37.7,25.1,30.20,WSW,256,3.0,3.0,60,0.00,,CLR,0.00,VWS V14.01,2013-04-04 08:24:00,
2013-04-04 03:30:00,37.6,25.4,30.20,WSW,256,2.0,3.0,61,0.00,,CLR,0.00,VWS V14.01,2013-04-04 08:30:00,
2013-04-04 03:35:00,37.5,25.3,30.20,WSW,250,2.0,3.0,61,0.00,,CLR,0.00,VWS V14.01,2013-04-04 08:35:00,
2013-04-04 03:40:00,37.3,25.1,30.20,WSW,250,2.0,3.0,61,0.00,,CLR,0.00,VWS V14.01,2013-04-04 08:40:00,
2013-04-04 03:45:00,37.2,25.4,30.20,WSW,255,1.0,2.0,62,0.00,,CLR,0.00,VWS V14.01,2013-04-04 08:45:00,
2013-04-04 03:50:00,37.1,25.3,30.20,WSW,251,0.0,2.0,62,0.00,,CLR,0.00,VWS V14.01,2013-04-04 08:50:00,
2013-04-04 03:55:00,37.0,25.2,30.20,WSW,251,1.0,2.0,62,0.00,,CLR,0.00,VWS V14.01,2013-04-04 08:55:00,
2013-04-04 04:00:00,37.0,25.2,30.20,WSW,251,0.0,1.0,62,0.00,,CLR,0.00,VWS V14.01,2013-04-04 09:00:00,
2013-04-04 04:05:00,37.0,25.2,30.20,WSW,251,0.0,0.0,62,0.00,,CLR,0.00,VWS V14.01,2013-04-04 09:05:00,
2013-04-04 04:10:00,37.0,25.6,30.20,WSW,251,1.0,2.0,63,0.00,,CLR,0.00,VWS V14.01,2013-04-04 09:10:00,
2013-04-04 04:15:00,36.8,25.4,30.20,WSW,251,0.0,0.0,63,0.00,,CLR,0.00,VWS V14.01,2013-04-04 09:15:00,
2013-04-04 04:20:00,36.6,25.2,30.20,WSW,251,0.0,0.0,63,0.00,,CLR,0.00,VWS V14.01,2013-04-04 09:20:00,
2013-04-04 04:25:00,36.4,25.4,30.20,WSW,251,0.0,3.0,64,0.00,,CLR,0.00,VWS V14.01,2013-04-04 09:25:00,
2013-04-04 04:30:00,36.2,25.6,30.20,WNW,285,2.0,3.0,65,0.00,,CLR,0.00,VWS V14.01,2013-04-04 09:30:00,
2013-04-04 04:35:00,36.3,25.7,30.20,WNW,285,0.0,1.0,65,0.00,,CLR,0.00,VWS V14.01,2013-04-04 09:35:00,
2013-04-04 04:40:00,36.3,26.0,30.20,WNW,285,1.0,1.0,66,0.00,,CLR,0.00,VWS V14.01,2013-04-04 09:40:00,
2013-04-04 04:45:00,36.3,26.0,30.20,WNW,285,0.0,2.0,66,0.00,,CLR,0.00,VWS V14.01,2013-04-04 09:45:00,
2013-04-04 04:50:00,36.3,26.0,30.20,WNW,285,1.0,2.0,66,0.00,,CLR,0.00,VWS V14.01,2013-04-04 09:50:00,
2013-04-04 04:55:00,36.2,26.0,30.20,WNW,285,2.0,2.0,66,0.00,,CLR,0.00,VWS V14.01,2013-04-04 09:55:00,
2013-04-04 05:00:00,36.1,26.2,30.20,WNW,285,0.0,2.0,67,0.00,,CLR,0.00,VWS V14.01,2013-04-04 10:00:00,
2013-04-04 05:05:00,36.1,26.2,30.20,WSW,240,1.0,2.0,67,0.00,,CLR,0.00,VWS V14.01,2013-04-04 10:05:00,
2013-04-04 05:10:00,36.1,26.2,30.20,West,265,0.0,1.0,67,0.00,,CLR,0.00,VWS V14.01,2013-04-04 10:10:00,
2013-04-04 05:15:00,36.0,26.1,30.20,WNW,301,2.0,3.0,67,0.00,,CLR,0.00,VWS V14.01,2013-04-04 10:15:00,
2013-04-04 05:20:00,36.2,26.3,30.20,West,274,3.0,4.0,67,0.00,,CLR,0.00,VWS V14.01,2013-04-04 10:20:00,
2013-04-04 05:26:00,36.5,26.6,30.20,WNW,291,3.0,4.0,67,0.00,,CLR,0.00,VWS V14.01,2013-04-04 10:26:00,
2013-04-04 05:31:00,36.6,26.3,30.20,West,280,2.0,3.0,66,0.00,,CLR,0.00,VWS V14.01,2013-04-04 10:31:00,
2013-04-04 05:36:00,36.6,26.3,30.20,WNW,299,3.0,4.0,66,0.00,,CLR,0.00,VWS V14.01,2013-04-04 10:36:00,
2013-04-04 05:41:00,36.6,26.3,30.19,WNW,301,2.0,3.0,66,0.00,,FEW030,0.00,VWS V14.01,2013-04-04 10:41:00,
2013-04-04 05:46:00,36.5,26.2,30.19,WNW,293,2.0,3.0,66,0.00,,FEW030,0.00,VWS V14.01,2013-04-04 10:46:00,
2013-04-04 05:51:00,36.3,26.4,30.19,WNW,293,2.0,4.0,67,0.00,,FEW030,0.00,VWS V14.01,2013-04-04 10:51:00,
2013-04-04 05:56:00,36.3,26.4,30.19,WNW,299,3.0,5.0,67,0.00,,FEW030,0.00,VWS V14.01,2013-04-04 10:56:00,
2013-04-04 06:01:00,36.3,26.8,30.19,WNW,296,2.0,3.0,68,0.00,,FEW030,0.00,VWS V14.01,2013-04-04 11:01:00,
2013-04-04 06:06:00,36.3,26.8,30.19,WNW,296,2.0,4.0,68,0.00,,FEW030,0.00,VWS V14.01,2013-04-04 11:06:00,
2013-04-04 06:12:00,36.2,26.7,30.19,West,280,1.0,4.0,68,0.00,,FEW030,0.00,VWS V14.01,2013-04-04 11:12:00,
2013-04-04 06:17:00,36.2,27.0,30.19,WNW,294,3.0,4.0,69,0.00,,FEW030,0.00,VWS V14.01,2013-04-04 11:17:00,
2013-04-04 06:22:00,36.1,26.9,30.19,WNW,293,1.0,3.0,69,0.00,,FEW030,0.00,VWS V14.01,2013-04-04 11:22:00,
2013-04-04 06:27:00,36.0,26.8,30.19,WNW,293,2.0,3.0,69,0.00,,FEW030,0.00,VWS V14.01,2013-04-04 11:27:00,
2013-04-04 06:32:00,35.9,27.1,30.18,WNW,293,0.0,2.0,70,0.00,,FEW030,0.00,VWS V14.01,2013-04-04 11:32:00,
2013-04-04 06:37:00,35.8,26.6,30.19,WNW,293,0.0,1.0,69,0.00,,FEW030,0.00,VWS V14.01,2013-04-04 11:37:00,
2013-04-04 06:42:00,35.7,26.5,30.19,WNW,293,0.0,0.0,69,0.00,,FEW030,0.00,VWS V14.01,2013-04-04 11:42:00,
2013-04-04 06:47:00,35.4,26.6,30.19,WNW,293,0.0,0.0,70,0.00,,FEW030,0.00,VWS V14.01,2013-04-04 11:47:00,
2013-04-04 06:52:00,35.1,26.3,30.19,WNW,293,0.0,0.0,70,0.00,,FEW030,0.00,VWS V14.01,2013-04-04 11:52:00,
2013-04-04 06:57:00,34.8,26.4,30.19,WNW,293,0.0,0.0,71,0.00,,FEW030,0.00,VWS V14.01,2013-04-04 11:57:00,
2013-04-04 07:02:00,34.5,26.4,30.19,WNW,293,0.0,1.0,72,0.00,,FEW030,0.00,VWS V14.01,2013-04-04 12:02:00,
2013-04-04 07:07:00,34.2,26.1,30.18,WNW,293,0.0,1.0,72,0.00,,FEW030,0.00,VWS V14.01,2013-04-04 12:07:00,
2013-04-04 07:12:00,34.0,26.3,30.18,WNW,293,0.0,1.0,73,0.00,,FEW030,0.00,VWS V14.01,2013-04-04 12:12:00,
2013-04-04 07:17:00,33.6,25.9,30.18,WNW,293,0.0,0.0,73,0.00,,FEW030,0.00,VWS V14.01,2013-04-04 12:17:00,
2013-04-04 07:22:00,33.3,25.9,30.18,WNW,293,0.0,0.0,74,0.00,,FEW030,0.00,VWS V14.01,2013-04-04 12:22:00,
2013-04-04 07:27:00,33.3,26.2,30.18,WNW,293,0.0,0.0,75,0.00,,FEW030,0.00,VWS V14.01,2013-04-04 12:27:00,
2013-04-04 07:32:00,33.6,26.5,30.18,WNW,293,0.0,0.0,75,0.00,,FEW030,0.00,VWS V14.01,2013-04-04 12:32:00,
2013-04-04 07:37:00,34.0,26.9,30.18,WNW,293,0.0,1.0,75,0.00,,FEW030,0.00,VWS V14.01,2013-04-04 12:37:00,
2013-04-04 07:42:00,34.3,27.2,30.18,WNW,293,0.0,0.0,75,0.00,,FEW030,0.00,VWS V14.01,2013-04-04 12:42:00,
2013-04-04 07:48:00,34.6,27.2,30.18,West,269,2.0,3.0,74,0.00,,FEW030,0.00,VWS V14.01,2013-04-04 12:48:00,
2013-04-04 07:53:00,34.9,27.8,30.18,West,269,1.0,2.0,75,0.00,,FEW120,0.00,VWS V14.01,2013-04-04 12:53:00,
2013-04-04 07:58:00,35.2,28.1,30.18,West,265,1.0,2.0,75,0.00,,FEW120,0.00,VWS V14.01,2013-04-04 12:58:00,
2013-04-04 08:03:00,35.6,28.1,30.18,West,265,2.0,2.0,74,0.00,,FEW120,0.00,VWS V14.01,2013-04-04 13:03:00,
2013-04-04 08:08:00,35.9,28.4,30.18,West,265,1.0,3.0,74,0.00,,FEW120,0.00,VWS V14.01,2013-04-04 13:08:00,
2013-04-04 08:13:00,36.4,28.9,30.18,WSW,249,1.0,3.0,74,0.00,,FEW120,0.00,VWS V14.01,2013-04-04 13:13:00,
2013-04-04 08:18:00,36.8,29.3,30.18,WSW,249,2.0,2.0,74,0.00,,FEW120,0.00,VWS V14.01,2013-04-04 13:18:00,
2013-04-04 08:23:00,37.3,29.5,30.18,WSW,249,1.0,3.0,73,0.00,,FEW120,0.00,VWS V14.01,2013-04-04 13:23:00,
2013-04-04 08:28:00,38.0,30.1,30.18,WNW,293,1.0,3.0,73,0.00,,FEW120,0.00,VWS V14.01,2013-04-04 13:28:00,
2013-04-04 08:33:00,38.3,30.1,30.18,West,260,2.0,4.0,72,0.00,,FEW120,0.00,VWS V14.01,2013-04-04 13:33:00,
2013-04-04 08:38:00,38.6,30.0,30.18,WSW,255,3.0,4.0,71,0.00,,FEW120,0.00,VWS V14.01,2013-04-04 13:38:00,
2013-04-04 08:43:00,38.8,30.2,30.18,West,262,4.0,4.0,71,0.00,,FEW120,0.00,VWS V14.01,2013-04-04 13:43:00,
2013-04-04 08:48:00,39.1,30.2,30.18,West,266,5.0,5.0,70,0.00,,FEW120,0.00,VWS V14.01,2013-04-04 13:48:00,
2013-04-04 08:53:00,39.4,30.8,30.18,WNW,293,5.0,5.0,71,0.00,,FEW120,0.00,VWS V14.01,2013-04-04 13:53:00,
2013-04-04 08:58:00,39.8,30.8,30.18,WSW,256,5.0,6.0,70,0.00,,FEW120,0.00,VWS V14.01,2013-04-04 13:58:00,
2013-04-04 09:03:00,40.1,30.8,30.18,WSW,251,5.0,6.0,69,0.00,,FEW120,0.00,VWS V14.01,2013-04-04 14:03:00,
2013-04-04 09:08:00,40.7,31.3,30.18,WNW,283,4.0,4.0,69,0.00,,FEW120,0.00,VWS V14.01,2013-04-04 14:08:00,
2013-04-04 09:13:00,41.2,30.7,30.18,West,267,3.0,6.0,66,0.00,,FEW120,0.00,VWS V14.01,2013-04-04 14:13:00,
2013-04-04 09:19:00,41.5,31.4,30.18,West,268,4.0,9.0,67,0.00,,FEW120,0.00,VWS V14.01,2013-04-04 14:19:00,
2013-04-04 09:24:00,41.6,30.7,30.18,West,265,1.0,6.0,65,0.00,,FEW120,0.00,VWS V14.01,2013-04-04 14:24:00,
2013-04-04 09:29:00,41.9,30.6,30.18,NW,308,2.0,7.0,64,0.00,,FEW120,0.00,VWS V14.01,2013-04-04 14:29:00,
2013-04-04 09:34:00,42.2,31.3,30.17,West,278,4.0,6.0,65,0.00,,FEW120,0.00,VWS V14.01,2013-04-04 14:34:00,
2013-04-04 09:39:00,42.3,31.0,30.17,WSW,257,6.0,8.0,64,0.00,,FEW120,0.00,VWS V14.01,2013-04-04 14:39:00,
2013-04-04 09:44:00,42.6,31.3,30.17,West,280,4.0,5.0,64,0.00,,FEW120,0.00,VWS V14.01,2013-04-04 14:44:00,
2013-04-04 09:49:00,42.7,31.0,30.17,WSW,253,3.0,7.0,63,0.00,,FEW120,0.00,VWS V14.01,2013-04-04 14:49:00,
2013-04-04 09:54:00,43.1,31.8,30.17,WNW,286,3.0,7.0,64,0.00,,FEW120,0.00,VWS V14.01,2013-04-04 14:54:00,
2013-04-04 09:59:00,43.4,31.7,30.17,WSW,245,8.0,9.0,63,0.00,,FEW120,0.00,VWS V14.01,2013-04-04 14:59:00,
2013-04-04 10:04:00,43.4,31.7,30.17,NW,310,4.0,8.0,63,0.00,,FEW120,0.00,VWS V14.01,2013-04-04 15:04:00,
2013-04-04 10:09:00,43.9,31.7,30.16,WSW,240,5.0,9.0,62,0.00,,FEW120,0.00,VWS V14.01,2013-04-04 15:09:00,
2013-04-04 10:14:00,44.1,31.9,30.16,WSW,249,7.0,10.0,62,0.00,,FEW120,0.00,VWS V14.01,2013-04-04 15:14:00,
2013-04-04 10:19:00,44.7,32.1,30.16,WNW,288,4.0,6.0,61,0.00,,FEW120,0.00,VWS V14.01,2013-04-04 15:19:00,
2013-04-04 10:24:00,45.2,32.2,30.16,West,278,5.0,8.0,60,0.00,,FEW120,0.00,VWS V14.01,2013-04-04 15:24:00,
2013-04-04 10:30:00,45.5,32.0,30.16,SW,236,4.0,7.0,59,0.00,,FEW120,0.00,VWS V14.01,2013-04-04 15:30:00,
2013-04-04 10:35:00,45.9,32.4,30.16,SSW,208,3.0,5.0,59,0.00,,FEW120,0.00,VWS V14.01,2013-04-04 15:35:00,
2013-04-04 10:40:00,46.9,32.9,30.15,SW,226,5.0,9.0,58,0.00,,FEW120,0.00,VWS V14.01,2013-04-04 15:40:00,
2013-04-04 10:45:00,47.3,32.0,30.15,SW,229,7.0,10.0,55,0.00,,FEW120,0.00,VWS V14.01,2013-04-04 15:45:00,
2013-04-04 10:50:00,47.9,33.4,30.15,SSW,199,4.0,7.0,57,0.00,,FEW120,0.00,VWS V14.01,2013-04-04 15:50:00,
2013-04-04 10:55:00,48.7,31.4,30.15,WSW,255,7.0,14.0,51,0.00,,FEW120,0.00,VWS V14.01,2013-04-04 15:55:00,
2013-04-04 11:00:00,49.4,31.6,30.15,WSW,241,11.0,14.0,50,0.00,,FEW120,0.00,VWS V14.01,2013-04-04 16:00:00,
2013-04-04 11:05:00,49.6,31.2,30.15,West,260,7.0,11.0,49,0.00,,FEW120,0.00,VWS V14.01,2013-04-04 16:05:00,
2013-04-04 11:10:00,49.6,30.7,30.15,WSW,246,6.0,14.0,48,0.00,,FEW120,0.00,VWS V14.01,2013-04-04 16:10:00,
2013-04-04 11:15:00,49.7,30.8,30.15,SW,215,6.0,8.0,48,0.00,,FEW120,0.00,VWS V14.01,2013-04-04 16:15:00,
2013-04-04 11:20:00,50.2,30.8,30.14,WNW,290,4.0,12.0,47,0.00,,FEW120,0.00,VWS V14.01,2013-04-04 16:20:00,
2013-04-04 11:25:00,50.5,31.6,30.15,WSW,241,5.0,11.0,48,0.00,,FEW120,0.00,VWS V14.01,2013-04-04 16:25:00,
2013-04-04 11:30:00,50.7,32.2,30.15,WSW,251,8.0,10.0,49,0.00,,FEW120,0.00,VWS V14.01,2013-04-04 16:30:00,
2013-04-04 11:35:00,50.9,33.4,30.15,SSW,211,9.0,9.0,51,0.00,,FEW120,0.00,VWS V14.01,2013-04-04 16:35:00,
2013-04-04 11:40:00,51.5,32.5,30.14,SW,234,5.0,10.0,48,0.00,,SCT130,0.00,VWS V14.01,2013-04-04 16:40:00,
2013-04-04 11:45:00,51.7,33.7,30.14,WSW,237,9.0,11.0,50,0.00,,SCT130,0.00,VWS V14.01,2013-04-04 16:45:00,
2013-04-04 11:51:00,51.5,33.5,30.13,West,276,7.0,14.0,50,0.00,,SCT130,0.00,VWS V14.01,2013-04-04 16:51:00,
2013-04-04 11:56:00,51.5,34.0,30.13,WSW,254,8.0,10.0,51,0.00,,SCT130,0.00,VWS V14.01,2013-04-04 16:56:00,
2013-04-04 12:01:00,52.1,35.0,30.13,SW,235,5.0,9.0,52,0.00,,SCT130,0.00,VWS V14.01,2013-04-04 17:01:00,
2013-04-04 12:06:00,52.5,34.9,30.13,WNW,292,7.0,9.0,51,0.00,,SCT130,0.00,VWS V14.01,2013-04-04 17:06:00,
2013-04-04 12:11:00,52.9,34.8,30.13,West,264,5.0,8.0,50,0.00,,SCT130,0.00,VWS V14.01,2013-04-04 17:11:00,
2013-04-04 12:16:00,52.9,35.3,30.13,WSW,247,4.0,10.0,51,0.00,,SCT130,0.00,VWS V14.01,2013-04-04 17:16:00,
2013-04-04 12:21:00,53.2,35.6,30.12,West,265,3.0,7.0,51,0.00,,SCT130,0.00,VWS V14.01,2013-04-04 17:21:00,
2013-04-04 12:27:00,53.8,36.1,30.12,SW,229,4.0,5.0,51,0.00,,SCT130,0.00,VWS V14.01,2013-04-04 17:27:00,
2013-04-04 12:32:00,53.9,35.7,30.12,NW,304,4.0,9.0,50,0.00,,SCT130,0.00,VWS V14.01,2013-04-04 17:32:00,
2013-04-04 12:37:00,54.4,35.7,30.12,WSW,243,8.0,12.0,49,0.00,,SCT130,0.00,VWS V14.01,2013-04-04 17:37:00,
2013-04-04 12:42:00,54.7,35.9,30.12,SW,235,11.0,11.0,49,0.00,,SCT130,0.00,VWS V14.01,2013-04-04 17:42:00,
2013-04-04 13:03:00,55.6,35.7,30.11,NW,308,2.0,7.0,47,0.00,,SCT130,0.00,VWS V14.01,2013-04-04 18:03:00,
2013-04-04 13:08:00,56.3,36.3,30.11,WNW,287,7.0,8.0,47,0.00,,SCT130,0.00,VWS V14.01,2013-04-04 18:08:00,
2013-04-04 13:13:00,56.6,37.2,30.11,WSW,258,2.0,6.0,48,0.00,,SCT130,0.00,VWS V14.01,2013-04-04 18:13:00,
2013-04-04 13:18:00,56.5,34.9,30.11,SW,233,3.0,10.0,44,0.00,,SCT130,0.00,VWS V14.01,2013-04-04 18:18:00,
2013-04-04 13:23:00,56.7,35.6,30.11,SSW,208,10.0,11.0,45,0.00,,SCT130,0.00,VWS V14.01,2013-04-04 18:23:00,
2013-04-04 13:28:00,56.8,36.8,30.11,West,266,8.0,9.0,47,0.00,,SCT130,0.00,VWS V14.01,2013-04-04 18:28:00,
2013-04-04 13:33:00,56.9,36.3,30.10,WNW,291,0.0,5.0,46,0.00,,SCT130,0.00,VWS V14.01,2013-04-04 18:33:00,
2013-04-04 13:38:00,57.2,35.5,30.10,NW,308,5.0,9.0,44,0.00,,SCT130,0.00,VWS V14.01,2013-04-04 18:38:00,
2013-04-04 13:43:00,57.8,36.0,30.10,WSW,248,10.0,15.0,44,0.00,,SCT130,0.00,VWS V14.01,2013-04-04 18:43:00,
2013-04-04 13:48:00,57.8,36.6,30.10,NW,307,5.0,7.0,45,0.00,,SCT130,0.00,VWS V14.01,2013-04-04 18:48:00,
2013-04-04 13:53:00,58.0,36.8,30.09,SW,227,5.0,5.0,45,0.00,,SCT130,0.00,VWS V14.01,2013-04-04 18:53:00,
2013-04-04 13:59:00,58.5,37.2,30.09,SSW,208,4.0,8.0,45,0.00,,SCT130,0.00,VWS V14.01,2013-04-04 18:59:00,
2013-04-04 14:04:00,58.8,36.4,30.09,WNW,285,5.0,6.0,43,0.00,,SCT130,0.00,VWS V14.01,2013-04-04 19:04:00,
2013-04-04 14:09:00,59.2,36.7,30.09,NNW,328,3.0,6.0,43,0.00,,SCT130,0.00,VWS V14.01,2013-04-04 19:09:00,
2013-04-04 14:14:00,59.6,36.5,30.09,NNW,328,4.0,12.0,42,0.00,,SCT130,0.00,VWS V14.01,2013-04-04 19:14:00,
2013-04-04 14:19:00,59.5,37.0,30.09,WSW,241,3.0,8.0,43,0.00,,SCT130,0.00,VWS V14.01,2013-04-04 19:19:00,
2013-04-04 14:24:00,59.6,36.5,30.08,WSW,256,8.0,8.0,42,0.00,,SCT130,0.00,VWS V14.01,2013-04-04 19:24:00,
2013-04-04 14:29:00,59.7,37.8,30.08,WNW,287,3.0,7.0,44,0.00,,SCT130,0.00,VWS V14.01,2013-04-04 19:29:00,
2013-04-04 14:34:00,60.2,38.2,30.08,WNW,291,2.0,7.0,44,0.00,,SCT130,0.00,VWS V14.01,2013-04-04 19:34:00,
2013-04-04 14:39:00,60.4,37.2,30.08,WNW,295,3.0,6.0,42,0.00,,SCT130,0.00,VWS V14.01,2013-04-04 19:39:00,
2013-04-04 14:44:00,61.1,37.2,30.08,WNW,291,5.0,5.0,41,0.00,,SCT130,0.00,VWS V14.01,2013-04-04 19:44:00,
2013-04-04 14:49:00,60.5,36.7,30.07,WNW,291,0.0,8.0,41,0.00,,SCT130,0.00,VWS V14.01,2013-04-04 19:49:00,
2013-04-04 14:54:00,60.7,38.1,30.07,West,280,5.0,6.0,43,0.00,,SCT130,0.00,VWS V14.01,2013-04-04 19:54:00,
2013-04-04 14:59:00,60.7,37.5,30.07,WNW,302,3.0,8.0,42,0.00,,SCT130,0.00,VWS V14.01,2013-04-04 19:59:00,
2013-04-04 15:05:00,60.8,37.0,30.07,WNW,303,4.0,9.0,41,0.00,,SCT130,0.00,VWS V14.01,2013-04-04 20:05:00,
2013-04-04 15:10:00,61.4,38.7,30.07,WSW,256,3.0,7.0,43,0.00,,SCT130,0.00,VWS V14.01,2013-04-04 20:10:00,
2013-04-04 15:15:00,61.8,37.2,30.06,WSW,243,6.0,9.0,40,0.00,,SCT130,0.00,VWS V14.01,2013-04-04 20:15:00,
2013-04-04 15:20:00,61.6,37.7,30.06,SW,235,4.0,8.0,41,0.00,,SCT130,0.00,VWS V14.01,2013-04-04 20:20:00,
2013-04-04 15:25:00,61.4,36.2,30.06,WNW,293,6.0,11.0,39,0.00,,SCT130,0.00,VWS V14.01,2013-04-04 20:25:00,
2013-04-04 15:30:00,61.2,37.3,30.06,NW,312,5.0,5.0,41,0.00,,SCT130,0.00,VWS V14.01,2013-04-04 20:30:00,
2013-04-04 15:35:00,61.9,39.2,30.05,WNW,283,1.0,5.0,43,0.00,,SCT130,0.00,VWS V14.01,2013-04-04 20:35:00,
2013-04-04 15:40:00,62.6,38.0,30.05,WNW,296,5.0,6.0,40,0.00,,SCT130,0.00,VWS V14.01,2013-04-04 20:40:00,
2013-04-04 15:45:00,62.6,37.3,30.05,NW,308,2.0,6.0,39,0.00,,CLR,0.00,VWS V14.01,2013-04-04 20:45:00,
2013-04-04 15:50:00,63.0,38.3,30.05,NW,313,5.0,5.0,40,0.00,,CLR,0.00,VWS V14.01,2013-04-04 20:50:00,
2013-04-04 15:55:00,62.7,37.4,30.05,WNW,286,3.0,9.0,39,0.00,,CLR,0.00,VWS V14.01,2013-04-04 20:55:00,
2013-04-04 16:00:00,62.5,37.9,30.05,West,280,5.0,7.0,40,0.00,,CLR,0.00,VWS V14.01,2013-04-04 21:00:00,
2013-04-04 16:05:00,62.7,38.0,30.04,SW,236,4.0,4.0,40,0.00,,CLR,0.00,VWS V14.01,2013-04-04 21:05:00,
2013-04-04 16:10:00,62.9,38.9,30.04,West,276,7.0,7.0,41,0.00,,CLR,0.00,VWS V14.01,2013-04-04 21:10:00,
2013-04-04 16:15:00,63.1,38.4,30.04,WNW,290,6.0,8.0,40,0.00,,CLR,0.00,VWS V14.01,2013-04-04 21:15:00,
2013-04-04 16:20:00,62.8,38.1,30.04,SW,224,3.0,9.0,40,0.00,,CLR,0.00,VWS V14.01,2013-04-04 21:20:00,
2013-04-04 16:25:00,62.4,38.4,30.04,WSW,248,4.0,6.0,41,0.00,,CLR,0.00,VWS V14.01,2013-04-04 21:25:00,
2013-04-04 16:30:00,62.6,38.0,30.04,WSW,241,6.0,11.0,40,0.00,,CLR,0.00,VWS V14.01,2013-04-04 21:30:00,
2013-04-04 16:35:00,62.7,38.0,30.04,WNW,296,0.0,1.0,40,0.00,,CLR,0.00,VWS V14.01,2013-04-04 21:35:00,
2013-04-04 16:40:00,63.2,37.9,30.03,East,96,2.0,3.0,39,0.00,,CLR,0.00,VWS V14.01,2013-04-04 21:40:00,
2013-04-04 16:45:00,63.9,38.5,30.03,WNW,293,3.0,8.0,39,0.00,,CLR,0.00,VWS V14.01,2013-04-04 21:45:00,
2013-04-04 16:50:00,63.7,38.3,30.03,SW,236,3.0,5.0,39,0.00,,CLR,0.00,VWS V14.01,2013-04-04 21:50:00,
2013-04-04 16:55:00,63.7,39.0,30.03,WSW,237,0.0,0.0,40,0.00,,CLR,0.00,VWS V14.01,2013-04-04 21:55:00,
2013-04-04 17:01:00,64.2,38.8,30.03,NW,305,2.0,4.0,39,0.00,,CLR,0.00,VWS V14.01,2013-04-04 22:01:00,
2013-04-04 17:06:00,64.6,38.4,30.03,North,354,2.0,4.0,38,0.00,,CLR,0.00,VWS V14.01,2013-04-04 22:06:00,
2013-04-04 17:11:00,64.7,39.2,30.03,West,268,1.0,4.0,39,0.00,,CLR,0.00,VWS V14.01,2013-04-04 22:11:00,
2013-04-04 17:16:00,64.8,38.6,30.03,North,11,1.0,3.0,38,0.00,,CLR,0.00,VWS V14.01,2013-04-04 22:16:00,
2013-04-04 17:21:00,64.6,37.8,30.03,WNW,294,3.0,7.0,37,0.00,,CLR,0.00,VWS V14.01,2013-04-04 22:21:00,
2013-04-04 17:26:00,64.0,38.6,30.03,WNW,298,5.0,7.0,39,0.00,,CLR,0.00,VWS V14.01,2013-04-04 22:26:00,
2013-04-04 17:32:00,64.1,38.0,30.03,NW,320,2.0,3.0,38,0.00,,CLR,0.00,VWS V14.01,2013-04-04 22:32:00,
2013-04-04 17:37:00,64.1,38.7,30.03,WSW,239,2.0,5.0,39,0.00,,CLR,0.00,VWS V14.01,2013-04-04 22:37:00,
2013-04-04 17:42:00,64.3,38.8,30.03,NW,316,1.0,4.0,39,0.00,,FEW200,0.00,VWS V14.01,2013-04-04 22:42:00,
2013-04-04 17:47:00,64.5,38.3,30.03,NNW,340,2.0,2.0,38,0.00,,FEW200,0.00,VWS V14.01,2013-04-04 22:47:00,
2013-04-04 17:52:00,64.5,39.0,30.03,NW,316,2.0,3.0,39,0.00,,FEW200,0.00,VWS V14.01,2013-04-04 22:52:00,
2013-04-04 17:57:00,64.4,38.9,30.03,NW,315,5.0,7.0,39,0.00,,FEW200,0.00,VWS V14.01,2013-04-04 22:57:00,
2013-04-04 18:02:00,64.0,38.6,30.03,NW,320,4.0,4.0,39,0.00,,FEW200,0.00,VWS V14.01,2013-04-04 23:02:00,
2013-04-04 18:07:00,63.9,38.5,30.03,NW,325,4.0,4.0,39,0.00,,FEW200,0.00,VWS V14.01,2013-04-04 23:07:00,
2013-04-04 18:12:00,63.9,39.1,30.03,NW,308,3.0,3.0,40,0.00,,FEW200,0.00,VWS V14.01,2013-04-04 23:12:00,
2013-04-04 18:17:00,63.8,39.0,30.03,NW,314,0.0,1.0,40,0.00,,FEW200,0.00,VWS V14.01,2013-04-04 23:17:00,
2013-04-04 18:22:00,63.9,38.5,30.03,North,8,3.0,3.0,39,0.00,,FEW200,0.00,VWS V14.01,2013-04-04 23:22:00,
2013-04-04 18:27:00,63.8,38.4,30.03,NNW,346,3.0,5.0,39,0.00,,FEW200,0.00,VWS V14.01,2013-04-04 23:27:00,
2013-04-04 18:32:00,63.4,38.7,30.04,NW,324,0.0,3.0,40,0.00,,FEW200,0.00,VWS V14.01,2013-04-04 23:32:00,
2013-04-04 18:37:00,63.3,38.6,30.04,NNE,26,5.0,5.0,40,0.00,,FEW200,0.00,VWS V14.01,2013-04-04 23:37:00,
2013-04-04 18:42:00,63.1,38.4,30.03,North,4,5.0,5.0,40,0.00,,CLR,0.00,VWS V14.01,2013-04-04 23:42:00,
2013-04-04 18:47:00,62.9,38.9,30.04,NNE,12,3.0,4.0,41,0.00,,CLR,0.00,VWS V14.01,2013-04-04 23:47:00,
2013-04-04 18:52:00,62.5,38.5,30.04,North,10,2.0,4.0,41,0.00,,CLR,0.00,VWS V14.01,2013-04-04 23:52:00,
2013-04-04 18:57:00,62.2,38.8,30.04,NNW,336,2.0,5.0,42,0.00,,CLR,0.00,VWS V14.01,2013-04-04 23:57:00,
2013-04-04 19:05:00,61.7,38.4,30.04,North,11,6.0,6.0,42,0.00,,CLR,0.00,VWS V14.01,2013-04-05 00:05:00,
2013-04-04 19:10:00,61.4,38.7,30.04,NW,325,3.0,3.0,43,0.00,,CLR,0.00,VWS V14.01,2013-04-05 00:10:00,
2013-04-04 19:15:00,61.2,38.5,30.04,NNE,28,5.0,7.0,43,0.00,,CLR,0.00,VWS V14.01,2013-04-05 00:15:00,
2013-04-04 19:20:00,60.9,38.9,30.04,NNW,342,3.0,5.0,44,0.00,,CLR,0.00,VWS V14.01,2013-04-05 00:20:00,
2013-04-04 19:25:00,60.5,38.5,30.04,NNE,16,3.0,6.0,44,0.00,,CLR,0.00,VWS V14.01,2013-04-05 00:25:00,
2013-04-04 19:30:00,60.2,38.8,30.04,NNE,16,4.0,4.0,45,0.00,,CLR,0.00,VWS V14.01,2013-04-05 00:30:00,
2013-04-04 19:35:00,59.6,38.2,30.04,North,359,1.0,5.0,45,0.00,,CLR,0.00,VWS V14.01,2013-04-05 00:35:00,
2013-04-04 19:40:00,59.3,38.5,30.04,NNE,16,1.0,3.0,46,0.00,,CLR,0.00,VWS V14.01,2013-04-05 00:40:00,
2013-04-04 19:45:00,58.9,38.2,30.04,NNE,23,2.0,3.0,46,0.00,,CLR,0.00,VWS V14.01,2013-04-05 00:45:00,
2013-04-04 19:50:00,58.5,38.4,30.04,NNE,21,0.0,4.0,47,0.00,,CLR,0.00,VWS V14.01,2013-04-05 00:50:00,
2013-04-04 19:55:00,58.0,37.9,30.04,NNE,32,2.0,5.0,47,0.00,,CLR,0.00,VWS V14.01,2013-04-05 00:55:00,
2013-04-04 20:00:00,57.7,38.2,30.04,NNE,21,1.0,3.0,48,0.00,,CLR,0.00,VWS V14.01,2013-04-05 01:00:00,
2013-04-04 20:05:00,57.4,37.9,30.05,North,354,2.0,3.0,48,0.00,,CLR,0.00,VWS V14.01,2013-04-05 01:05:00,
2013-04-04 20:10:00,56.9,38.0,30.05,NNE,12,1.0,4.0,49,0.00,,CLR,0.00,VWS V14.01,2013-04-05 01:10:00,
2013-04-04 20:15:00,56.6,37.7,30.05,NNE,15,1.0,4.0,49,0.00,,CLR,0.00,VWS V14.01,2013-04-05 01:15:00,
2013-04-04 20:20:00,56.3,37.4,30.05,NNE,21,2.0,5.0,49,0.00,,CLR,0.00,VWS V14.01,2013-04-05 01:20:00,
2013-04-04 20:25:00,56.0,37.6,30.05,NNE,17,5.0,7.0,50,0.00,,CLR,0.00,VWS V14.01,2013-04-05 01:25:00,
2013-04-04 20:30:00,55.6,37.3,30.05,North,4,5.0,7.0,50,0.00,,CLR,0.00,VWS V14.01,2013-04-05 01:30:00,
2013-04-04 20:35:00,55.3,37.5,30.06,NNW,347,5.0,5.0,51,0.00,,CLR,0.00,VWS V14.01,2013-04-05 01:35:00,
2013-04-04 20:40:00,54.9,37.6,30.06,North,8,3.0,8.0,52,0.00,,CLR,0.00,VWS V14.01,2013-04-05 01:40:00,
2013-04-04 20:45:00,54.6,37.3,30.06,NNE,27,3.0,7.0,52,0.00,,SCT200,0.00,VWS V14.01,2013-04-05 01:45:00,
2013-04-04 20:51:00,54.4,37.6,30.06,North,354,6.0,7.0,53,0.00,,SCT200,0.00,VWS V14.01,2013-04-05 01:51:00,
2013-04-04 20:56:00,54.1,37.4,30.06,NNE,15,2.0,4.0,53,0.00,,SCT200,0.00,VWS V14.01,2013-04-05 01:56:00,
2013-04-04 21:01:00,53.9,37.7,30.07,North,349,2.0,4.0,54,0.00,,SCT200,0.00,VWS V14.01,2013-04-05 02:01:00,
2013-04-04 21:06:00,53.6,37.4,30.07,North,8,2.0,5.0,54,0.00,,SCT200,0.00,VWS V14.01,2013-04-05 02:06:00,
2013-04-04 21:11:00,53.3,37.1,30.07,NNE,27,6.0,8.0,54,0.00,,SCT200,0.00,VWS V14.01,2013-04-05 02:11:00,
2013-04-04 21:16:00,53.2,37.5,30.07,NNW,332,5.0,5.0,55,0.00,,SCT200,0.00,VWS V14.01,2013-04-05 02:16:00,
2013-04-04 21:21:00,53.0,37.3,30.08,North,349,4.0,5.0,55,0.00,,SCT200,0.00,VWS V14.01,2013-04-05 02:21:00,
2013-04-04 21:26:00,52.8,37.1,30.08,NNE,20,5.0,7.0,55,0.00,,SCT200,0.00,VWS V14.01,2013-04-05 02:26:00,
2013-04-04 21:31:00,52.5,37.3,30.08,NNE,16,7.0,8.0,56,0.00,,SCT200,0.00,VWS V14.01,2013-04-05 02:31:00,
2013-04-04 21:36:00,52.2,37.0,30.08,NNE,28,6.0,8.0,56,0.00,,SCT200,0.00,VWS V14.01,2013-04-05 02:36:00,
2013-04-04 21:41:00,51.8,37.1,30.08,NNE,15,4.0,7.0,57,0.00,,SCT200,0.00,VWS V14.01,2013-04-05 02:41:00,
2013-04-04 21:47:00,51.5,36.8,30.08,NNE,28,3.0,9.0,57,0.00,,SCT200,0.00,VWS V14.01,2013-04-05 02:47:00,
2013-04-04 21:52:00,51.2,36.5,30.08,NE,43,5.0,7.0,57,0.00,,SCT200,0.00,VWS V14.01,2013-04-05 02:52:00,
2013-04-04 21:57:00,50.8,36.1,30.08,NNE,29,5.0,7.0,57,0.00,,SCT200,0.00,VWS V14.01,2013-04-05 02:57:00,
2013-04-04 22:02:00,50.5,35.8,30.09,NNE,15,5.0,8.0,57,0.00,,SCT200,0.00,VWS V14.01,2013-04-05 03:02:00,
2013-04-04 22:07:00,50.2,35.6,30.09,North,8,5.0,7.0,57,0.00,,SCT200,0.00,VWS V14.01,2013-04-05 03:07:00,
2013-04-04 22:12:00,49.9,35.3,30.09,ENE,60,3.0,5.0,57,0.00,,SCT200,0.00,VWS V14.01,2013-04-05 03:12:00,
2013-04-04 22:17:00,49.6,35.0,30.09,NNE,31,6.0,7.0,57,0.00,,SCT200,0.00,VWS V14.01,2013-04-05 03:17:00,
2013-04-04 22:22:00,49.4,34.8,30.10,NNE,23,6.0,7.0,57,0.00,,SCT200,0.00,VWS V14.01,2013-04-05 03:22:00,
2013-04-04 22:27:00,49.1,34.5,30.09,NNE,23,5.0,5.0,57,0.00,,SCT200,0.00,VWS V14.01,2013-04-05 03:27:00,
2013-04-04 22:32:00,48.9,34.3,30.10,NNE,31,5.0,6.0,57,0.00,,SCT200,0.00,VWS V14.01,2013-04-05 03:32:00,
2013-04-04 22:37:00,48.7,34.2,30.10,North,8,4.0,4.0,57,0.00,,SCT200,0.00,VWS V14.01,2013-04-05 03:37:00,
2013-04-04 22:42:00,48.4,33.9,30.10,NNE,12,4.0,7.0,57,0.00,,SCT200,0.00,VWS V14.01,2013-04-05 03:42:00,
2013-04-04 22:47:00,48.2,33.7,30.10,North,359,4.0,5.0,57,0.00,,SCT200,0.00,VWS V14.01,2013-04-05 03:47:00,
2013-04-04 22:52:00,47.9,33.4,30.10,NNE,21,3.0,5.0,57,0.00,,SCT200,0.00,VWS V14.01,2013-04-05 03:52:00,
2013-04-04 22:57:00,47.7,33.2,30.10,NNE,26,5.0,6.0,57,0.00,,SCT200,0.00,VWS V14.01,2013-04-05 03:57:00,
2013-04-04 23:00:00,47.7,33.2,30.10,North,11,4.0,6.0,57,0.00,,SCT200,0.00,VWS V14.01,2013-04-05 04:00:00,
2013-04-04 23:01:00,47.6,33.1,30.10,NNE,16,3.0,5.0,57,0.00,,SCT200,0.00,VWS V14.01,2013-04-05 04:01:00,
2013-04-04 23:06:00,47.5,33.0,30.10,NNE,23,5.0,5.0,57,0.00,,SCT200,0.00,VWS V14.01,2013-04-05 04:06:00,
2013-04-04 23:11:00,47.3,32.8,30.10,NNE,19,3.0,4.0,57,0.00,,SCT200,0.00,VWS V14.01,2013-04-05 04:11:00,
2013-04-04 23:16:00,47.2,32.3,30.10,NNE,16,2.0,3.0,56,0.00,,SCT200,0.00,VWS V14.01,2013-04-05 04:16:00,
2013-04-04 23:21:00,47.0,32.1,30.10,NNE,16,5.0,6.0,56,0.00,,SCT200,0.00,VWS V14.01,2013-04-05 04:21:00,
2013-04-04 23:27:00,46.9,32.0,30.10,North,8,3.0,6.0,56,0.00,,SCT200,0.00,VWS V14.01,2013-04-05 04:27:00,
2013-04-04 23:32:00,46.8,32.0,30.10,NNE,25,5.0,7.0,56,0.00,,SCT200,0.00,VWS V14.01,2013-04-05 04:32:00,
2013-04-04 23:37:00,46.6,31.8,30.10,NNE,31,3.0,5.0,56,0.00,,SCT200,0.00,VWS V14.01,2013-04-05 04:37:00,
2013-04-04 23:42:00,46.4,31.6,30.10,NNE,16,4.0,5.0,56,0.00,,OVC110,0.00,VWS V14.01,2013-04-05 04:42:00,
2013-04-04 23:47:00,46.1,31.7,30.11,NNE,14,4.0,6.0,57,0.00,,OVC110,0.00,VWS V14.01,2013-04-05 04:47:00,
2013-04-04 23:52:00,46.0,31.6,30.11,NNE,31,3.0,5.0,57,0.00,,OVC110,0.00,VWS V14.01,2013-04-05 04:52:00,
2013-04-04 23:57:00,45.9,31.5,30.11,NE,37,4.0,5.0,57,0.00,,OVC110,0.00,VWS V14.01,2013-04-05 04:57:00,